sensor_id;sensor_type;location;lat;lon;timestamp;P1;durP1;ratioP1;P2;durP2;ratioP2
35795;SDS011;21916;52.428;13.302;2022-08-25T00:00:46;8.25;;;6.05;;
35795;SDS011;21916;52.428;13.302;2022-08-25T00:03:14;8.07;;;6.65;;
35795;SDS011;21916;52.428;13.302;2022-08-25T00:05:40;11.45;;;6.82;;
35795;SDS011;21916;52.428;13.302;2022-08-25T00:08:07;7.28;;;6.53;;
35795;SDS011;21916;52.428;13.302;2022-08-25T00:10:34;11.57;;;7.25;;
35795;SDS011;21916;52.428;13.302;2022-08-25T00:13:02;13.15;;;7.32;;
35795;SDS011;21916;52.428;13.302;2022-08-25T00:15:29;11.15;;;7.30;;
35795;SDS011;21916;52.428;13.302;2022-08-25T00:17:57;12.70;;;7.10;;
35795;SDS011;21916;52.428;13.302;2022-08-25T00:20:24;12.90;;;7.63;;
35795;SDS011;21916;52.428;13.302;2022-08-25T00:22:50;11.73;;;6.70;;
35795;SDS011;21916;52.428;13.302;2022-08-25T00:25:17;10.00;;;7.07;;
35795;SDS011;21916;52.428;13.302;2022-08-25T00:27:43;13.07;;;7.70;;
35795;SDS011;21916;52.428;13.302;2022-08-25T00:30:10;14.07;;;8.07;;
35795;SDS011;21916;52.428;13.302;2022-08-25T00:32:39;10.02;;;7.50;;
35795;SDS011;21916;52.428;13.302;2022-08-25T00:35:05;10.77;;;7.65;;
35795;SDS011;21916;52.428;13.302;2022-08-25T00:37:31;10.27;;;7.05;;
35795;SDS011;21916;52.428;13.302;2022-08-25T00:39:57;15.98;;;8.55;;
35795;SDS011;21916;52.428;13.302;2022-08-25T00:42:23;11.77;;;7.60;;
35795;SDS011;21916;52.428;13.302;2022-08-25T00:44:50;16.50;;;7.53;;
35795;SDS011;21916;52.428;13.302;2022-08-25T00:47:16;12.75;;;7.78;;
35795;SDS011;21916;52.428;13.302;2022-08-25T00:49:47;15.35;;;8.40;;
35795;SDS011;21916;52.428;13.302;2022-08-25T00:52:21;11.82;;;8.85;;
35795;SDS011;21916;52.428;13.302;2022-08-25T00:58:03;15.43;;;7.85;;
35795;SDS011;21916;52.428;13.302;2022-08-25T01:00:40;14.60;;;7.68;;
35795;SDS011;21916;52.428;13.302;2022-08-25T01:03:09;12.70;;;7.72;;
35795;SDS011;21916;52.428;13.302;2022-08-25T01:05:36;9.40;;;7.78;;
35795;SDS011;21916;52.428;13.302;2022-08-25T01:08:04;11.43;;;8.18;;
35795;SDS011;21916;52.428;13.302;2022-08-25T01:10:32;10.73;;;7.78;;
35795;SDS011;21916;52.428;13.302;2022-08-25T01:13:06;9.65;;;8.23;;
35795;SDS011;21916;52.428;13.302;2022-08-25T01:15:45;13.07;;;8.07;;
35795;SDS011;21916;52.428;13.302;2022-08-25T01:18:12;13.35;;;8.40;;
35795;SDS011;21916;52.428;13.302;2022-08-25T01:20:41;12.90;;;8.10;;
35795;SDS011;21916;52.428;13.302;2022-08-25T01:23:07;12.98;;;8.15;;
35795;SDS011;21916;52.428;13.302;2022-08-25T01:25:42;11.35;;;8.15;;
35795;SDS011;21916;52.428;13.302;2022-08-25T01:28:10;11.85;;;7.50;;
35795;SDS011;21916;52.428;13.302;2022-08-25T01:30:36;11.77;;;8.05;;
35795;SDS011;21916;52.428;13.302;2022-08-25T01:33:03;12.93;;;8.07;;
35795;SDS011;21916;52.428;13.302;2022-08-25T01:35:31;14.50;;;8.52;;
35795;SDS011;21916;52.428;13.302;2022-08-25T01:37:58;15.75;;;8.10;;
35795;SDS011;21916;52.428;13.302;2022-08-25T01:40:25;12.40;;;7.70;;
35795;SDS011;21916;52.428;13.302;2022-08-25T01:42:53;11.82;;;8.65;;
35795;SDS011;21916;52.428;13.302;2022-08-25T01:45:28;13.70;;;8.80;;
35795;SDS011;21916;52.428;13.302;2022-08-25T01:47:54;15.40;;;9.05;;
35795;SDS011;21916;52.428;13.302;2022-08-25T01:50:20;10.05;;;7.90;;
35795;SDS011;21916;52.428;13.302;2022-08-25T01:55:27;14.70;;;8.43;;
35795;SDS011;21916;52.428;13.302;2022-08-25T01:57:52;15.50;;;9.27;;
35795;SDS011;21916;52.428;13.302;2022-08-25T02:00:19;13.95;;;8.65;;
35795;SDS011;21916;52.428;13.302;2022-08-25T02:02:46;16.30;;;8.18;;
35795;SDS011;21916;52.428;13.302;2022-08-25T02:05:13;14.60;;;9.02;;
35795;SDS011;21916;52.428;13.302;2022-08-25T02:07:41;11.48;;;9.18;;
35795;SDS011;21916;52.428;13.302;2022-08-25T02:10:08;13.70;;;8.50;;
35795;SDS011;21916;52.428;13.302;2022-08-25T02:12:37;13.60;;;9.30;;
35795;SDS011;21916;52.428;13.302;2022-08-25T02:15:04;13.55;;;9.20;;
35795;SDS011;21916;52.428;13.302;2022-08-25T02:17:33;14.18;;;9.73;;
35795;SDS011;21916;52.428;13.302;2022-08-25T02:19:59;13.82;;;9.63;;
35795;SDS011;21916;52.428;13.302;2022-08-25T02:22:25;18.08;;;9.85;;
35795;SDS011;21916;52.428;13.302;2022-08-25T02:24:53;12.23;;;9.43;;
35795;SDS011;21916;52.428;13.302;2022-08-25T02:27:19;16.40;;;8.80;;
35795;SDS011;21916;52.428;13.302;2022-08-25T02:29:47;13.13;;;8.88;;
35795;SDS011;21916;52.428;13.302;2022-08-25T02:32:13;15.43;;;10.07;;
35795;SDS011;21916;52.428;13.302;2022-08-25T02:34:39;14.07;;;9.85;;
35795;SDS011;21916;52.428;13.302;2022-08-25T02:37:05;15.32;;;9.32;;
35795;SDS011;21916;52.428;13.302;2022-08-25T02:39:32;18.05;;;9.65;;
35795;SDS011;21916;52.428;13.302;2022-08-25T02:41:58;17.45;;;9.73;;
35795;SDS011;21916;52.428;13.302;2022-08-25T02:44:26;11.18;;;9.43;;
35795;SDS011;21916;52.428;13.302;2022-08-25T02:46:52;19.45;;;10.20;;
35795;SDS011;21916;52.428;13.302;2022-08-25T02:49:18;18.15;;;9.32;;
35795;SDS011;21916;52.428;13.302;2022-08-25T02:51:44;15.35;;;10.52;;
35795;SDS011;21916;52.428;13.302;2022-08-25T02:54:10;14.73;;;10.73;;
35795;SDS011;21916;52.428;13.302;2022-08-25T02:56:36;18.17;;;10.13;;
35795;SDS011;21916;52.428;13.302;2022-08-25T02:59:02;16.13;;;10.52;;
35795;SDS011;21916;52.428;13.302;2022-08-25T03:01:29;19.27;;;10.43;;
35795;SDS011;21916;52.428;13.302;2022-08-25T03:03:56;13.30;;;10.48;;
35795;SDS011;21916;52.428;13.302;2022-08-25T03:06:22;14.43;;;10.93;;
35795;SDS011;21916;52.428;13.302;2022-08-25T03:08:49;12.90;;;9.73;;
35795;SDS011;21916;52.428;13.302;2022-08-25T03:11:17;16.83;;;10.32;;
35795;SDS011;21916;52.428;13.302;2022-08-25T03:13:43;14.43;;;10.45;;
35795;SDS011;21916;52.428;13.302;2022-08-25T03:16:09;17.35;;;10.73;;
35795;SDS011;21916;52.428;13.302;2022-08-25T03:18:35;16.45;;;10.35;;
35795;SDS011;21916;52.428;13.302;2022-08-25T03:21:02;14.23;;;10.57;;
35795;SDS011;21916;52.428;13.302;2022-08-25T03:23:31;15.75;;;10.82;;
35795;SDS011;21916;52.428;13.302;2022-08-25T03:25:57;16.42;;;10.98;;
35795;SDS011;21916;52.428;13.302;2022-08-25T03:28:41;18.08;;;11.52;;
35795;SDS011;21916;52.428;13.302;2022-08-25T03:31:08;22.33;;;11.43;;
35795;SDS011;21916;52.428;13.302;2022-08-25T03:33:34;12.77;;;10.95;;
35795;SDS011;21916;52.428;13.302;2022-08-25T03:36:01;15.40;;;10.90;;
35795;SDS011;21916;52.428;13.302;2022-08-25T03:38:27;13.85;;;11.18;;
35795;SDS011;21916;52.428;13.302;2022-08-25T03:40:53;15.40;;;11.73;;
35795;SDS011;21916;52.428;13.302;2022-08-25T03:43:19;15.80;;;10.93;;
35795;SDS011;21916;52.428;13.302;2022-08-25T03:45:45;18.25;;;11.50;;
35795;SDS011;21916;52.428;13.302;2022-08-25T03:48:12;16.25;;;11.18;;
35795;SDS011;21916;52.428;13.302;2022-08-25T03:50:43;13.88;;;10.75;;
35795;SDS011;21916;52.428;13.302;2022-08-25T03:53:14;16.92;;;11.93;;
35795;SDS011;21916;52.428;13.302;2022-08-25T03:55:41;14.35;;;11.18;;
35795;SDS011;21916;52.428;13.302;2022-08-25T03:58:07;19.25;;;11.75;;
35795;SDS011;21916;52.428;13.302;2022-08-25T04:00:33;15.50;;;12.07;;
35795;SDS011;21916;52.428;13.302;2022-08-25T04:03:00;20.00;;;12.25;;
35795;SDS011;21916;52.428;13.302;2022-08-25T04:05:25;14.52;;;11.48;;
35795;SDS011;21916;52.428;13.302;2022-08-25T04:07:51;17.63;;;11.63;;
35795;SDS011;21916;52.428;13.302;2022-08-25T04:10:17;17.83;;;11.57;;
35795;SDS011;21916;52.428;13.302;2022-08-25T04:12:44;13.65;;;11.20;;
35795;SDS011;21916;52.428;13.302;2022-08-25T04:15:12;19.58;;;12.38;;
35795;SDS011;21916;52.428;13.302;2022-08-25T04:17:38;18.73;;;11.32;;
35795;SDS011;21916;52.428;13.302;2022-08-25T04:20:05;20.42;;;12.05;;
35795;SDS011;21916;52.428;13.302;2022-08-25T04:22:36;20.65;;;13.63;;
35795;SDS011;21916;52.428;13.302;2022-08-25T04:25:03;19.95;;;13.10;;
35795;SDS011;21916;52.428;13.302;2022-08-25T04:27:30;18.63;;;12.30;;
35795;SDS011;21916;52.428;13.302;2022-08-25T04:29:56;14.55;;;12.45;;
35795;SDS011;21916;52.428;13.302;2022-08-25T04:32:22;18.67;;;12.70;;
35795;SDS011;21916;52.428;13.302;2022-08-25T04:34:48;16.83;;;11.48;;
35795;SDS011;21916;52.428;13.302;2022-08-25T04:37:14;19.92;;;12.25;;
35795;SDS011;21916;52.428;13.302;2022-08-25T04:39:41;16.92;;;12.25;;
35795;SDS011;21916;52.428;13.302;2022-08-25T04:42:07;20.48;;;12.13;;
35795;SDS011;21916;52.428;13.302;2022-08-25T04:44:33;16.75;;;11.45;;
35795;SDS011;21916;52.428;13.302;2022-08-25T04:46:59;16.58;;;11.68;;
35795;SDS011;21916;52.428;13.302;2022-08-25T04:49:25;18.23;;;12.07;;
35795;SDS011;21916;52.428;13.302;2022-08-25T04:51:52;16.98;;;12.32;;
35795;SDS011;21916;52.428;13.302;2022-08-25T04:54:18;17.40;;;12.50;;
35795;SDS011;21916;52.428;13.302;2022-08-25T04:56:47;18.13;;;12.40;;
35795;SDS011;21916;52.428;13.302;2022-08-25T04:59:16;17.30;;;11.98;;
35795;SDS011;21916;52.428;13.302;2022-08-25T05:01:42;15.48;;;12.93;;
35795;SDS011;21916;52.428;13.302;2022-08-25T05:04:11;17.13;;;12.13;;
35795;SDS011;21916;52.428;13.302;2022-08-25T05:06:39;20.27;;;12.82;;
35795;SDS011;21916;52.428;13.302;2022-08-25T05:09:05;20.77;;;12.60;;
35795;SDS011;21916;52.428;13.302;2022-08-25T05:11:31;17.80;;;12.52;;
35795;SDS011;21916;52.428;13.302;2022-08-25T05:13:59;18.75;;;12.45;;
35795;SDS011;21916;52.428;13.302;2022-08-25T05:16:26;16.85;;;12.52;;
35795;SDS011;21916;52.428;13.302;2022-08-25T05:18:52;14.77;;;12.20;;
35795;SDS011;21916;52.428;13.302;2022-08-25T05:21:21;15.43;;;11.75;;
35795;SDS011;21916;52.428;13.302;2022-08-25T05:23:52;16.75;;;12.38;;
35795;SDS011;21916;52.428;13.302;2022-08-25T05:26:21;20.55;;;12.90;;
35795;SDS011;21916;52.428;13.302;2022-08-25T05:28:48;15.60;;;12.38;;
35795;SDS011;21916;52.428;13.302;2022-08-25T05:31:15;19.83;;;13.50;;
35795;SDS011;21916;52.428;13.302;2022-08-25T05:33:41;21.00;;;12.75;;
35795;SDS011;21916;52.428;13.302;2022-08-25T05:36:09;17.67;;;12.45;;
35795;SDS011;21916;52.428;13.302;2022-08-25T05:38:38;21.77;;;14.23;;
35795;SDS011;21916;52.428;13.302;2022-08-25T05:41:10;20.10;;;15.07;;
35795;SDS011;21916;52.428;13.302;2022-08-25T05:43:40;19.90;;;13.95;;
35795;SDS011;21916;52.428;13.302;2022-08-25T05:46:07;20.25;;;13.45;;
35795;SDS011;21916;52.428;13.302;2022-08-25T05:48:33;18.40;;;13.52;;
35795;SDS011;21916;52.428;13.302;2022-08-25T05:51:01;20.23;;;14.80;;
35795;SDS011;21916;52.428;13.302;2022-08-25T05:53:29;17.20;;;14.77;;
35795;SDS011;21916;52.428;13.302;2022-08-25T05:55:56;18.63;;;14.65;;
35795;SDS011;21916;52.428;13.302;2022-08-25T05:58:23;23.83;;;15.35;;
35795;SDS011;21916;52.428;13.302;2022-08-25T06:00:52;25.90;;;16.38;;
35795;SDS011;21916;52.428;13.302;2022-08-25T06:03:18;21.27;;;17.08;;
35795;SDS011;21916;52.428;13.302;2022-08-25T06:05:44;23.67;;;17.15;;
35795;SDS011;21916;52.428;13.302;2022-08-25T06:08:10;27.75;;;18.00;;
35795;SDS011;21916;52.428;13.302;2022-08-25T06:10:36;25.75;;;19.58;;
35795;SDS011;21916;52.428;13.302;2022-08-25T06:13:02;24.25;;;17.75;;
35795;SDS011;21916;52.428;13.302;2022-08-25T06:15:29;30.38;;;19.40;;
35795;SDS011;21916;52.428;13.302;2022-08-25T06:17:55;31.20;;;19.38;;
35795;SDS011;21916;52.428;13.302;2022-08-25T06:20:27;28.88;;;20.23;;
35795;SDS011;21916;52.428;13.302;2022-08-25T06:22:55;30.25;;;19.73;;
35795;SDS011;21916;52.428;13.302;2022-08-25T06:25:22;28.20;;;20.20;;
35795;SDS011;21916;52.428;13.302;2022-08-25T06:27:49;23.30;;;18.52;;
35795;SDS011;21916;52.428;13.302;2022-08-25T06:30:17;26.77;;;17.98;;
35795;SDS011;21916;52.428;13.302;2022-08-25T06:32:45;21.35;;;16.50;;
35795;SDS011;21916;52.428;13.302;2022-08-25T06:35:15;22.98;;;18.08;;
35795;SDS011;21916;52.428;13.302;2022-08-25T06:37:43;24.77;;;16.98;;
35795;SDS011;21916;52.428;13.302;2022-08-25T06:40:09;24.25;;;17.45;;
35795;SDS011;21916;52.428;13.302;2022-08-25T06:42:37;22.80;;;15.13;;
35795;SDS011;21916;52.428;13.302;2022-08-25T06:45:03;18.35;;;15.10;;
35795;SDS011;21916;52.428;13.302;2022-08-25T06:47:30;21.65;;;15.07;;
35795;SDS011;21916;52.428;13.302;2022-08-25T06:49:56;22.42;;;16.85;;
35795;SDS011;21916;52.428;13.302;2022-08-25T06:52:22;23.27;;;15.63;;
35795;SDS011;21916;52.428;13.302;2022-08-25T06:54:49;18.50;;;15.20;;
35795;SDS011;21916;52.428;13.302;2022-08-25T06:57:15;19.95;;;14.52;;
35795;SDS011;21916;52.428;13.302;2022-08-25T06:59:41;22.00;;;15.25;;
35795;SDS011;21916;52.428;13.302;2022-08-25T07:02:07;18.77;;;15.38;;
35795;SDS011;21916;52.428;13.302;2022-08-25T07:04:33;22.17;;;16.08;;
35795;SDS011;21916;52.428;13.302;2022-08-25T07:07:00;19.95;;;16.23;;
35795;SDS011;21916;52.428;13.302;2022-08-25T07:09:27;22.00;;;16.50;;
35795;SDS011;21916;52.428;13.302;2022-08-25T07:11:53;24.73;;;16.13;;
35795;SDS011;21916;52.428;13.302;2022-08-25T07:14:19;23.88;;;15.93;;
35795;SDS011;21916;52.428;13.302;2022-08-25T07:16:46;23.02;;;16.35;;
35795;SDS011;21916;52.428;13.302;2022-08-25T07:19:12;21.25;;;16.60;;
35795;SDS011;21916;52.428;13.302;2022-08-25T07:21:39;20.70;;;14.82;;
35795;SDS011;21916;52.428;13.302;2022-08-25T07:24:08;19.20;;;15.25;;
35795;SDS011;21916;52.428;13.302;2022-08-25T07:26:35;18.00;;;14.77;;
35795;SDS011;21916;52.428;13.302;2022-08-25T07:29:04;19.50;;;14.45;;
35795;SDS011;21916;52.428;13.302;2022-08-25T07:31:33;19.60;;;15.00;;
35795;SDS011;21916;52.428;13.302;2022-08-25T07:33:59;17.42;;;14.18;;
35795;SDS011;21916;52.428;13.302;2022-08-25T07:36:44;18.27;;;14.15;;
35795;SDS011;21916;52.428;13.302;2022-08-25T07:39:10;20.27;;;13.98;;
35795;SDS011;21916;52.428;13.302;2022-08-25T07:41:37;21.80;;;15.05;;
35795;SDS011;21916;52.428;13.302;2022-08-25T07:44:05;17.67;;;14.60;;
35795;SDS011;21916;52.428;13.302;2022-08-25T07:46:32;21.48;;;14.27;;
35795;SDS011;21916;52.428;13.302;2022-08-25T07:48:58;17.70;;;14.13;;
35795;SDS011;21916;52.428;13.302;2022-08-25T07:51:24;19.95;;;14.90;;
35795;SDS011;21916;52.428;13.302;2022-08-25T07:53:50;25.33;;;15.63;;
35795;SDS011;21916;52.428;13.302;2022-08-25T07:56:16;19.50;;;16.48;;
35795;SDS011;21916;52.428;13.302;2022-08-25T07:58:43;20.27;;;15.82;;
35795;SDS011;21916;52.428;13.302;2022-08-25T08:01:16;18.27;;;15.65;;
35795;SDS011;21916;52.428;13.302;2022-08-25T08:03:44;16.83;;;15.02;;
35795;SDS011;21916;52.428;13.302;2022-08-25T08:06:11;16.33;;;14.02;;
35795;SDS011;21916;52.428;13.302;2022-08-25T08:08:40;21.85;;;15.20;;
35795;SDS011;21916;52.428;13.302;2022-08-25T08:11:13;19.27;;;14.25;;
35795;SDS011;21916;52.428;13.302;2022-08-25T08:13:51;19.80;;;14.05;;
35795;SDS011;21916;52.428;13.302;2022-08-25T08:16:19;18.95;;;14.10;;
35795;SDS011;21916;52.428;13.302;2022-08-25T08:18:47;16.85;;;13.20;;
35795;SDS011;21916;52.428;13.302;2022-08-25T08:21:23;18.85;;;14.02;;
35795;SDS011;21916;52.428;13.302;2022-08-25T08:23:52;18.55;;;14.13;;
35795;SDS011;21916;52.428;13.302;2022-08-25T08:26:20;22.35;;;15.18;;
35795;SDS011;21916;52.428;13.302;2022-08-25T08:28:46;24.45;;;15.80;;
35795;SDS011;21916;52.428;13.302;2022-08-25T08:31:13;24.48;;;15.52;;
35795;SDS011;21916;52.428;13.302;2022-08-25T08:33:44;20.08;;;14.55;;
35795;SDS011;21916;52.428;13.302;2022-08-25T08:36:13;18.83;;;14.82;;
35795;SDS011;21916;52.428;13.302;2022-08-25T08:38:40;21.20;;;14.48;;
35795;SDS011;21916;52.428;13.302;2022-08-25T08:47:38;19.17;;;14.93;;
35795;SDS011;21916;52.428;13.302;2022-08-25T08:52:39;24.00;;;15.23;;
35795;SDS011;21916;52.428;13.302;2022-08-25T08:55:10;19.42;;;13.77;;
35795;SDS011;21916;52.428;13.302;2022-08-25T08:57:49;23.05;;;15.32;;
35795;SDS011;21916;52.428;13.302;2022-08-25T09:00:17;20.05;;;13.88;;
35795;SDS011;21916;52.428;13.302;2022-08-25T09:03:21;23.05;;;15.75;;
35795;SDS011;21916;52.428;13.302;2022-08-25T09:05:48;20.30;;;14.07;;
35795;SDS011;21916;52.428;13.302;2022-08-25T09:08:17;20.50;;;14.55;;
35795;SDS011;21916;52.428;13.302;2022-08-25T09:25:04;17.20;;;12.70;;
35795;SDS011;21916;52.428;13.302;2022-08-25T09:30:27;19.60;;;12.80;;
35795;SDS011;21916;52.428;13.302;2022-08-25T09:33:07;19.00;;;12.73;;
35795;SDS011;21916;52.428;13.302;2022-08-25T09:35:37;18.75;;;12.05;;
35795;SDS011;21916;52.428;13.302;2022-08-25T09:38:06;21.73;;;13.55;;
35795;SDS011;21916;52.428;13.302;2022-08-25T09:40:36;20.27;;;11.57;;
35795;SDS011;21916;52.428;13.302;2022-08-25T09:43:04;24.30;;;12.77;;
35795;SDS011;21916;52.428;13.302;2022-08-25T09:45:47;18.85;;;12.43;;
35795;SDS011;21916;52.428;13.302;2022-08-25T09:48:19;17.95;;;10.90;;
35795;SDS011;21916;52.428;13.302;2022-08-25T09:50:51;16.35;;;11.00;;
35795;SDS011;21916;52.428;13.302;2022-08-25T09:53:26;20.23;;;10.93;;
35795;SDS011;21916;52.428;13.302;2022-08-25T09:56:01;18.80;;;10.77;;
35795;SDS011;21916;52.428;13.302;2022-08-25T09:58:30;15.98;;;9.50;;
35795;SDS011;21916;52.428;13.302;2022-08-25T10:01:10;15.32;;;9.15;;
35795;SDS011;21916;52.428;13.302;2022-08-25T10:06:29;17.95;;;9.13;;
35795;SDS011;21916;52.428;13.302;2022-08-25T10:09:05;14.50;;;8.75;;
35795;SDS011;21916;52.428;13.302;2022-08-25T10:11:40;15.40;;;8.43;;
35795;SDS011;21916;52.428;13.302;2022-08-25T10:14:16;12.20;;;8.30;;
35795;SDS011;21916;52.428;13.302;2022-08-25T10:16:46;14.50;;;8.48;;
35795;SDS011;21916;52.428;13.302;2022-08-25T10:19:27;12.55;;;8.15;;
35795;SDS011;21916;52.428;13.302;2022-08-25T10:22:27;14.80;;;8.48;;
35795;SDS011;21916;52.428;13.302;2022-08-25T10:24:46;13.23;;;7.35;;
35795;SDS011;21916;52.428;13.302;2022-08-25T10:29:53;17.70;;;7.32;;
35795;SDS011;21916;52.428;13.302;2022-08-25T10:32:25;13.40;;;7.18;;
35795;SDS011;21916;52.428;13.302;2022-08-25T10:34:57;11.00;;;6.57;;
35795;SDS011;21916;52.428;13.302;2022-08-25T10:37:39;12.77;;;7.45;;
35795;SDS011;21916;52.428;13.302;2022-08-25T10:45:34;12.48;;;6.85;;
35795;SDS011;21916;52.428;13.302;2022-08-25T10:56:22;13.32;;;5.75;;
35795;SDS011;21916;52.428;13.302;2022-08-25T11:04:31;9.43;;;5.30;;
35795;SDS011;21916;52.428;13.302;2022-08-25T11:07:10;10.97;;;5.60;;
35795;SDS011;21916;52.428;13.302;2022-08-25T11:09:49;12.90;;;5.40;;
35795;SDS011;21916;52.428;13.302;2022-08-25T11:15:00;11.48;;;5.80;;
35795;SDS011;21916;52.428;13.302;2022-08-25T11:17:33;12.00;;;5.97;;
35795;SDS011;21916;52.428;13.302;2022-08-25T11:20:11;11.48;;;6.35;;
35795;SDS011;21916;52.428;13.302;2022-08-25T11:22:46;11.90;;;5.68;;
35795;SDS011;21916;52.428;13.302;2022-08-25T11:25:21;9.80;;;5.72;;
35795;SDS011;21916;52.428;13.302;2022-08-25T11:28:05;14.10;;;5.60;;
35795;SDS011;21916;52.428;13.302;2022-08-25T11:30:40;11.55;;;5.72;;
35795;SDS011;21916;52.428;13.302;2022-08-25T11:33:15;9.52;;;5.68;;
35795;SDS011;21916;52.428;13.302;2022-08-25T11:35:43;12.88;;;5.50;;
35795;SDS011;21916;52.428;13.302;2022-08-25T11:38:24;10.73;;;5.20;;
35795;SDS011;21916;52.428;13.302;2022-08-25T11:43:43;11.25;;;7.57;;
35795;SDS011;21916;52.428;13.302;2022-08-25T11:46:22;11.40;;;4.70;;
35795;SDS011;21916;52.428;13.302;2022-08-25T11:48:56;14.38;;;5.60;;
35795;SDS011;21916;52.428;13.302;2022-08-25T11:51:57;10.00;;;5.57;;
35795;SDS011;21916;52.428;13.302;2022-08-25T11:54:27;13.43;;;6.28;;
35795;SDS011;21916;52.428;13.302;2022-08-25T11:57:05;8.68;;;5.07;;
35795;SDS011;21916;52.428;13.302;2022-08-25T12:05:11;9.88;;;6.22;;
35795;SDS011;21916;52.428;13.302;2022-08-25T12:08:00;14.07;;;5.72;;
35795;SDS011;21916;52.428;13.302;2022-08-25T12:11:00;14.98;;;5.82;;
35795;SDS011;21916;52.428;13.302;2022-08-25T12:13:46;13.00;;;5.40;;
35795;SDS011;21916;52.428;13.302;2022-08-25T12:21:48;11.75;;;5.50;;
35795;SDS011;21916;52.428;13.302;2022-08-25T12:24:17;13.13;;;5.40;;
35795;SDS011;21916;52.428;13.302;2022-08-25T12:31:58;11.70;;;5.55;;
35795;SDS011;21916;52.428;13.302;2022-08-25T12:37:04;13.60;;;5.75;;
35795;SDS011;21916;52.428;13.302;2022-08-25T12:45:10;12.50;;;5.68;;
35795;SDS011;21916;52.428;13.302;2022-08-25T12:49:00;15.50;;;5.45;;
35795;SDS011;21916;52.428;13.302;2022-08-25T12:50:56;14.40;;;6.18;;
35795;SDS011;21916;52.428;13.302;2022-08-25T12:53:43;12.25;;;5.20;;
35795;SDS011;21916;52.428;13.302;2022-08-25T12:56:26;11.95;;;5.10;;
35795;SDS011;21916;52.428;13.302;2022-08-25T13:06:33;10.25;;;4.60;;
35795;SDS011;21916;52.428;13.302;2022-08-25T13:09:17;10.90;;;5.10;;
35795;SDS011;21916;52.428;13.302;2022-08-25T13:12:41;16.33;;;5.00;;
35795;SDS011;21916;52.428;13.302;2022-08-25T13:14:53;10.60;;;4.88;;
35795;SDS011;21916;52.428;13.302;2022-08-25T13:17:25;8.33;;;4.50;;
35795;SDS011;21916;52.428;13.302;2022-08-25T13:22:58;12.35;;;5.32;;
35795;SDS011;21916;52.428;13.302;2022-08-25T13:25:27;14.43;;;5.00;;
35795;SDS011;21916;52.428;13.302;2022-08-25T13:27:55;11.02;;;5.40;;
35795;SDS011;21916;52.428;13.302;2022-08-25T13:30:25;12.48;;;5.40;;
35795;SDS011;21916;52.428;13.302;2022-08-25T13:32:55;14.02;;;4.82;;
35795;SDS011;21916;52.428;13.302;2022-08-25T13:35:26;16.40;;;5.78;;
35795;SDS011;21916;52.428;13.302;2022-08-25T13:38:10;14.48;;;5.32;;
35795;SDS011;21916;52.428;13.302;2022-08-25T13:40:38;13.07;;;5.10;;
35795;SDS011;21916;52.428;13.302;2022-08-25T13:43:05;9.18;;;4.90;;
35795;SDS011;21916;52.428;13.302;2022-08-25T13:45:37;11.15;;;4.68;;
35795;SDS011;21916;52.428;13.302;2022-08-25T13:48:12;10.60;;;4.55;;
35795;SDS011;21916;52.428;13.302;2022-08-25T13:51:02;10.60;;;5.15;;
35795;SDS011;21916;52.428;13.302;2022-08-25T13:53:54;8.95;;;4.88;;
35795;SDS011;21916;52.428;13.302;2022-08-25T13:56:24;13.32;;;5.18;;
35795;SDS011;21916;52.428;13.302;2022-08-25T13:58:55;10.55;;;5.82;;
35795;SDS011;21916;52.428;13.302;2022-08-25T14:01:25;12.88;;;5.63;;
35795;SDS011;21916;52.428;13.302;2022-08-25T14:03:53;14.30;;;5.35;;
35795;SDS011;21916;52.428;13.302;2022-08-25T14:06:22;7.53;;;4.60;;
35795;SDS011;21916;52.428;13.302;2022-08-25T14:14:00;7.70;;;4.70;;
35795;SDS011;21916;52.428;13.302;2022-08-25T14:16:35;11.93;;;6.70;;
35795;SDS011;21916;52.428;13.302;2022-08-25T14:19:23;14.63;;;5.35;;
35795;SDS011;21916;52.428;13.302;2022-08-25T14:21:50;10.35;;;5.10;;
35795;SDS011;21916;52.428;13.302;2022-08-25T14:24:18;12.85;;;7.13;;
35795;SDS011;21916;52.428;13.302;2022-08-25T14:26:46;12.98;;;5.45;;
35795;SDS011;21916;52.428;13.302;2022-08-25T14:29:12;8.50;;;4.75;;
35795;SDS011;21916;52.428;13.302;2022-08-25T14:31:40;15.90;;;5.25;;
35795;SDS011;21916;52.428;13.302;2022-08-25T14:34:14;12.65;;;4.85;;
35795;SDS011;21916;52.428;13.302;2022-08-25T14:36:42;11.80;;;4.35;;
35795;SDS011;21916;52.428;13.302;2022-08-25T14:39:09;12.82;;;4.65;;
35795;SDS011;21916;52.428;13.302;2022-08-25T14:41:37;11.80;;;4.43;;
35795;SDS011;21916;52.428;13.302;2022-08-25T14:44:05;11.95;;;4.93;;
35795;SDS011;21916;52.428;13.302;2022-08-25T14:46:33;11.02;;;4.78;;
35795;SDS011;21916;52.428;13.302;2022-08-25T14:49:09;10.45;;;4.95;;
35795;SDS011;21916;52.428;13.302;2022-08-25T14:51:39;8.75;;;4.15;;
35795;SDS011;21916;52.428;13.302;2022-08-25T14:54:09;7.97;;;4.10;;
35795;SDS011;21916;52.428;13.302;2022-08-25T14:56:37;10.77;;;4.53;;
35795;SDS011;21916;52.428;13.302;2022-08-25T14:59:04;18.42;;;5.18;;
35795;SDS011;21916;52.428;13.302;2022-08-25T15:01:30;7.80;;;4.43;;
35795;SDS011;21916;52.428;13.302;2022-08-25T15:03:57;11.27;;;4.60;;
35795;SDS011;21916;52.428;13.302;2022-08-25T15:06:27;8.27;;;4.63;;
35795;SDS011;21916;52.428;13.302;2022-08-25T15:08:53;13.50;;;5.88;;
35795;SDS011;21916;52.428;13.302;2022-08-25T15:11:42;9.65;;;4.55;;
35795;SDS011;21916;52.428;13.302;2022-08-25T15:14:10;7.18;;;4.45;;
35795;SDS011;21916;52.428;13.302;2022-08-25T15:16:42;10.70;;;5.40;;
35795;SDS011;21916;52.428;13.302;2022-08-25T15:19:16;13.82;;;5.05;;
35795;SDS011;21916;52.428;13.302;2022-08-25T15:21:45;12.07;;;5.30;;
35795;SDS011;21916;52.428;13.302;2022-08-25T15:24:12;10.43;;;4.43;;
35795;SDS011;21916;52.428;13.302;2022-08-25T15:26:41;15.38;;;4.60;;
35795;SDS011;21916;52.428;13.302;2022-08-25T15:29:10;12.63;;;4.70;;
35795;SDS011;21916;52.428;13.302;2022-08-25T15:31:36;11.48;;;4.97;;
35795;SDS011;21916;52.428;13.302;2022-08-25T15:34:05;7.78;;;4.30;;
35795;SDS011;21916;52.428;13.302;2022-08-25T15:36:32;10.85;;;5.15;;
35795;SDS011;21916;52.428;13.302;2022-08-25T15:38:58;13.85;;;4.93;;
35795;SDS011;21916;52.428;13.302;2022-08-25T15:41:24;14.23;;;4.70;;
35795;SDS011;21916;52.428;13.302;2022-08-25T15:43:50;12.52;;;4.35;;
35795;SDS011;21916;52.428;13.302;2022-08-25T15:46:18;15.60;;;4.82;;
35795;SDS011;21916;52.428;13.302;2022-08-25T15:48:50;12.80;;;4.45;;
35795;SDS011;21916;52.428;13.302;2022-08-25T15:51:18;10.88;;;5.07;;
35795;SDS011;21916;52.428;13.302;2022-08-25T15:53:45;14.93;;;4.78;;
35795;SDS011;21916;52.428;13.302;2022-08-25T15:56:11;12.93;;;4.80;;
35795;SDS011;21916;52.428;13.302;2022-08-25T15:58:46;12.82;;;5.30;;
35795;SDS011;21916;52.428;13.302;2022-08-25T16:01:19;11.25;;;4.32;;
35795;SDS011;21916;52.428;13.302;2022-08-25T16:03:48;13.23;;;4.68;;
35795;SDS011;21916;52.428;13.302;2022-08-25T16:06:15;16.77;;;4.95;;
35795;SDS011;21916;52.428;13.302;2022-08-25T16:08:41;12.02;;;4.85;;
35795;SDS011;21916;52.428;13.302;2022-08-25T16:11:14;12.30;;;5.00;;
35795;SDS011;21916;52.428;13.302;2022-08-25T16:13:43;11.45;;;4.43;;